createdAt,value
2024-01-11T00:02:20.748Z,2.77
2024-01-11T00:04:47.374Z,2.85
2024-01-11T00:07:14.062Z,2.91
2024-01-11T00:09:42.546Z,2.95
2024-01-11T00:12:10.051Z,2.90
2024-01-11T00:14:37.138Z,2.96
2024-01-11T00:17:03.864Z,2.90
2024-01-11T00:19:30.641Z,2.88
2024-01-11T00:21:57.469Z,2.74
2024-01-11T00:24:24.151Z,2.71
2024-01-11T00:26:50.724Z,2.77
2024-01-11T00:29:17.361Z,2.69
2024-01-11T00:31:43.918Z,2.64
2024-01-11T00:34:10.595Z,2.60
2024-01-11T00:36:38.001Z,2.66
2024-01-11T00:39:04.523Z,2.74
2024-01-11T00:41:31.425Z,2.72
2024-01-11T00:43:58.060Z,2.78
2024-01-11T00:46:24.617Z,2.74
2024-01-11T00:48:53.942Z,2.68
2024-01-11T00:51:22.613Z,2.66
2024-01-11T00:53:49.171Z,2.68
2024-01-11T00:56:20.414Z,2.61
2024-01-11T00:58:47.325Z,2.61
2024-01-11T01:01:14.368Z,2.61
2024-01-11T01:03:41.309Z,2.56
2024-01-11T01:06:07.996Z,2.48
2024-01-11T01:08:34.711Z,2.47
2024-01-11T01:11:01.810Z,2.52
2024-01-11T01:13:28.442Z,2.51
2024-01-11T01:15:54.985Z,2.54
2024-01-11T01:18:21.763Z,2.61
2024-01-11T01:20:48.482Z,2.41
2024-01-11T01:23:15.147Z,2.44
2024-01-11T01:25:41.676Z,2.49
2024-01-11T01:28:08.191Z,2.50
2024-01-11T01:30:34.703Z,2.52
2024-01-11T01:33:01.367Z,2.50
2024-01-11T01:35:28.004Z,2.49
2024-01-11T01:37:54.605Z,2.47
2024-01-11T01:40:21.171Z,2.47
2024-01-11T01:42:48.169Z,2.51
2024-01-11T01:45:16.207Z,2.44
2024-01-11T01:47:44.731Z,2.61
2024-01-11T01:50:12.493Z,2.60
2024-01-11T01:52:41.239Z,2.63
2024-01-11T01:55:10.673Z,2.76
2024-01-11T01:57:38.751Z,2.63
2024-01-11T02:00:06.351Z,2.70
2024-01-11T02:02:36.094Z,2.61
2024-01-11T02:05:03.280Z,2.76
2024-01-11T02:07:29.941Z,2.49
2024-01-11T02:09:57.515Z,2.45
2024-01-11T02:12:25.274Z,2.43
2024-01-11T02:14:54.463Z,2.46
2024-01-11T02:17:21.850Z,2.64
2024-01-11T02:19:48.484Z,2.61
2024-01-11T02:22:25.603Z,2.78
2024-01-11T02:24:54.157Z,2.77
2024-01-11T02:27:20.739Z,2.61
2024-01-11T02:29:47.361Z,2.63
2024-01-11T02:32:14.000Z,2.47
2024-01-11T02:34:41.069Z,2.48
2024-01-11T02:37:08.440Z,2.55
2024-01-11T02:39:35.144Z,2.52
2024-01-11T02:42:01.927Z,2.48
2024-01-11T02:44:28.745Z,2.41
2024-01-11T02:46:55.419Z,2.50
2024-01-11T02:49:22.184Z,2.51
2024-01-11T02:51:48.760Z,2.54
2024-01-11T02:54:15.362Z,2.54
2024-01-11T02:56:41.954Z,2.50
2024-01-11T02:59:09.288Z,2.55
2024-01-11T03:01:36.711Z,2.71
2024-01-11T03:04:03.402Z,2.73
2024-01-11T03:06:30.058Z,2.56
2024-01-11T03:08:56.844Z,2.58
2024-01-11T03:11:23.425Z,2.56
2024-01-11T03:13:50.077Z,2.63
2024-01-11T03:16:16.615Z,2.73
2024-01-11T03:18:43.335Z,2.78
2024-01-11T03:21:10.428Z,2.66
2024-01-11T03:23:37.010Z,2.59
2024-01-11T03:26:03.776Z,2.69
2024-01-11T03:28:30.408Z,2.61
2024-01-11T03:30:58.052Z,2.54
2024-01-11T03:33:24.917Z,2.60
2024-01-11T03:35:51.795Z,2.67
2024-01-11T03:38:18.691Z,2.66
2024-01-11T03:40:45.293Z,2.66
2024-01-11T03:43:11.929Z,2.73
2024-01-11T03:45:38.703Z,2.70
2024-01-11T03:48:05.464Z,2.65
2024-01-11T03:50:32.247Z,2.78
2024-01-11T03:52:58.890Z,2.90
2024-01-11T03:55:25.974Z,2.83
2024-01-11T03:57:53.826Z,2.87
2024-01-11T04:00:20.772Z,2.49
2024-01-11T04:02:47.553Z,2.39
2024-01-11T04:05:14.356Z,2.43
2024-01-11T04:07:40.913Z,2.50
2024-01-11T04:10:07.990Z,2.44
2024-01-11T04:12:34.558Z,2.44
2024-01-11T04:15:01.638Z,2.43
2024-01-11T04:17:28.288Z,2.50
2024-01-11T04:19:55.065Z,2.45
2024-01-11T04:22:21.590Z,2.56
2024-01-11T04:24:48.098Z,2.51
2024-01-11T04:27:14.674Z,2.54
2024-01-11T04:29:41.271Z,2.57
2024-01-11T04:32:07.964Z,2.63
2024-01-11T04:34:34.632Z,2.49
2024-01-11T04:37:01.236Z,2.42
2024-01-11T04:39:27.748Z,2.43
2024-01-11T04:41:54.295Z,2.49
2024-01-11T04:44:20.942Z,2.62
2024-01-11T04:46:47.571Z,2.55
2024-01-11T04:49:14.347Z,2.56
2024-01-11T04:51:40.906Z,2.51
2024-01-11T04:54:07.450Z,2.48
2024-01-11T04:56:34.025Z,2.38
2024-01-11T04:59:00.722Z,2.40
2024-01-11T05:01:27.354Z,2.42
2024-01-11T05:03:54.087Z,2.57
2024-01-11T05:06:22.758Z,2.52
2024-01-11T05:08:51.270Z,2.38
2024-01-11T05:11:18.932Z,2.30
2024-01-11T05:13:48.945Z,2.37
2024-01-11T05:16:26.597Z,2.47
2024-01-11T05:18:54.911Z,2.48
2024-01-11T05:21:22.266Z,2.44
2024-01-11T05:23:50.014Z,2.40
2024-01-11T05:26:18.085Z,2.43
2024-01-11T05:28:44.812Z,2.36
2024-01-11T05:31:13.368Z,2.42
2024-01-11T05:33:40.785Z,2.40
2024-01-11T05:36:08.010Z,2.32
2024-01-11T05:38:35.534Z,2.32
2024-01-11T05:41:03.029Z,2.27
2024-01-11T05:43:29.730Z,2.24
2024-01-11T05:45:56.336Z,2.28
2024-01-11T05:48:23.008Z,2.18
2024-01-11T05:50:49.631Z,2.35
2024-01-11T05:53:16.418Z,2.25
2024-01-11T05:55:43.052Z,2.27
2024-01-11T05:58:09.560Z,2.33
2024-01-11T06:00:36.350Z,2.51
2024-01-11T06:03:03.091Z,2.33
2024-01-11T06:05:29.775Z,2.27
2024-01-11T06:07:56.478Z,2.25
2024-01-11T06:10:23.098Z,2.17
2024-01-11T06:12:50.301Z,2.13
2024-01-11T06:15:16.834Z,2.25
2024-01-11T06:17:43.524Z,2.25
2024-01-11T06:20:11.884Z,2.39
2024-01-11T06:22:38.525Z,2.34
2024-01-11T06:25:05.554Z,2.30
2024-01-11T06:27:32.088Z,2.26
2024-01-11T06:29:59.593Z,2.27
2024-01-11T06:32:26.162Z,2.17
2024-01-11T06:34:52.895Z,2.16
2024-01-11T06:37:19.526Z,2.19
2024-01-11T06:39:46.402Z,2.16
2024-01-11T06:42:12.926Z,2.07
2024-01-11T06:44:39.818Z,2.12
2024-01-11T06:47:06.998Z,2.15
2024-01-11T06:49:34.669Z,2.09
2024-01-11T06:52:01.285Z,2.04
2024-01-11T06:54:27.842Z,2.04
2024-01-11T06:56:54.359Z,2.03
2024-01-11T06:59:22.181Z,2.03
2024-01-11T07:01:50.255Z,2.19
2024-01-11T07:04:16.844Z,2.35
2024-01-11T07:06:43.502Z,2.35
2024-01-11T07:09:12.060Z,2.06
2024-01-11T07:11:38.674Z,2.12
2024-01-11T07:14:05.520Z,2.02
2024-01-11T07:16:32.188Z,1.97
2024-01-11T07:18:58.804Z,2.06
2024-01-11T07:21:32.646Z,2.03
2024-01-11T07:24:00.397Z,2.03
2024-01-11T07:26:27.511Z,2.01
2024-01-11T07:28:57.965Z,1.90
2024-01-11T07:31:25.203Z,1.91
2024-01-11T07:33:52.069Z,1.89
2024-01-11T07:36:18.883Z,1.93
2024-01-11T07:38:45.580Z,1.98
2024-01-11T07:41:13.099Z,1.90
2024-01-11T07:43:49.125Z,2.15
2024-01-11T07:46:26.143Z,2.17
2024-01-11T07:49:00.444Z,2.30
2024-01-11T07:51:27.901Z,2.32
2024-01-11T07:53:55.099Z,2.55
2024-01-11T07:56:21.781Z,2.67
2024-01-11T07:58:50.018Z,2.56
2024-01-11T08:01:17.754Z,2.32
2024-01-11T08:03:48.485Z,2.18
2024-01-11T08:06:15.400Z,2.25
2024-01-11T08:08:42.359Z,2.30
2024-01-11T08:11:09.626Z,2.14
2024-01-11T08:13:38.993Z,2.17
2024-01-11T08:16:08.409Z,2.26
2024-01-11T08:18:35.194Z,2.33
2024-01-11T08:21:02.111Z,2.39
2024-01-11T08:23:28.700Z,2.24
2024-01-11T08:25:56.279Z,2.13
2024-01-11T08:28:23.601Z,2.32
2024-01-11T08:30:50.224Z,2.41
2024-01-11T08:33:16.984Z,2.56
2024-01-11T08:35:43.765Z,2.52
2024-01-11T08:38:10.691Z,2.50
2024-01-11T08:40:37.671Z,2.68
2024-01-11T08:43:04.701Z,2.35
2024-01-11T08:45:32.306Z,2.50
2024-01-11T08:47:59.443Z,2.55
2024-01-11T08:50:27.779Z,2.52
2024-01-11T08:52:57.016Z,2.56
2024-01-11T08:55:25.147Z,2.66
2024-01-11T08:57:52.963Z,2.75
2024-01-11T09:00:21.141Z,2.61
2024-01-11T09:02:47.848Z,2.64
2024-01-11T09:05:18.391Z,2.62
2024-01-11T09:07:45.040Z,2.72
2024-01-11T09:10:14.713Z,2.81
2024-01-11T09:12:41.398Z,2.97
2024-01-11T09:15:08.333Z,2.95
2024-01-11T09:17:35.171Z,2.79
2024-01-11T09:20:01.924Z,2.71
2024-01-11T09:22:29.176Z,2.58
2024-01-11T09:24:56.036Z,2.85
2024-01-11T09:27:23.412Z,2.85
2024-01-11T09:29:52.084Z,2.97
2024-01-11T09:32:21.513Z,3.10
2024-01-11T09:34:48.340Z,3.17
2024-01-11T09:37:14.979Z,3.07
2024-01-11T09:39:41.769Z,3.15
2024-01-11T09:42:13.108Z,3.23
2024-01-11T09:44:40.582Z,3.14
2024-01-11T09:49:38.979Z,3.34
2024-01-11T09:52:06.396Z,3.35
2024-01-11T09:54:32.970Z,3.03
2024-01-11T09:57:02.009Z,2.92
2024-01-11T09:59:29.068Z,2.72
2024-01-11T10:01:55.712Z,2.83
2024-01-11T10:04:22.571Z,3.04
2024-01-11T10:06:50.059Z,3.34
2024-01-11T10:09:17.534Z,3.08
2024-01-11T10:11:45.372Z,3.27
2024-01-11T10:14:13.927Z,3.39
2024-01-11T10:16:43.837Z,3.57
2024-01-11T10:19:11.990Z,3.72
2024-01-11T10:21:41.752Z,3.69
2024-01-11T10:24:09.090Z,3.67
2024-01-11T10:26:37.178Z,3.94
2024-01-11T10:29:04.631Z,4.06
2024-01-11T10:31:32.074Z,4.05
2024-01-11T10:33:58.905Z,4.10
2024-01-11T10:36:26.718Z,4.29
2024-01-11T10:38:55.090Z,4.01
2024-01-11T10:41:21.789Z,4.00
2024-01-11T10:43:49.996Z,4.24
2024-01-11T10:46:18.656Z,4.06
2024-01-11T10:48:48.332Z,3.94
2024-01-11T10:51:21.919Z,4.23
2024-01-11T10:53:49.321Z,4.21
2024-01-11T10:56:19.470Z,4.19
2024-01-11T10:58:47.859Z,4.28
2024-01-11T11:01:15.420Z,4.48
2024-01-11T11:03:44.577Z,4.47
2024-01-11T11:06:13.251Z,4.37
2024-01-11T11:08:41.351Z,4.25
2024-01-11T11:11:09.076Z,4.32
2024-01-11T11:13:38.738Z,4.23
2024-01-11T11:16:06.210Z,4.39
2024-01-11T11:18:36.609Z,4.24
2024-01-11T11:21:10.356Z,4.09
2024-01-11T11:23:37.080Z,4.10
2024-01-11T11:26:07.133Z,4.17
2024-01-11T11:28:36.019Z,3.95
2024-01-11T11:31:04.228Z,4.13
2024-01-11T11:33:33.153Z,4.32
2024-01-11T11:36:00.411Z,4.02
2024-01-11T11:38:31.854Z,3.97
2024-01-11T11:41:00.929Z,4.18
2024-01-11T11:43:29.160Z,4.20
2024-01-11T11:45:58.843Z,4.35
2024-01-11T11:48:30.599Z,4.43
2024-01-11T11:51:11.197Z,4.56
2024-01-11T11:53:39.494Z,4.54
2024-01-11T11:56:13.906Z,4.58
2024-01-11T11:58:40.550Z,4.47
2024-01-11T12:01:07.801Z,4.05
2024-01-11T12:03:39.116Z,3.97
2024-01-11T12:06:09.396Z,3.98
2024-01-11T12:08:37.026Z,4.20
2024-01-11T12:11:04.693Z,4.32
2024-01-11T12:13:34.305Z,4.58
2024-01-11T12:16:00.922Z,4.55
2024-01-11T12:18:28.099Z,4.68
2024-01-11T12:20:54.950Z,4.56
2024-01-11T12:23:21.956Z,4.66
2024-01-11T12:25:48.683Z,4.19
2024-01-11T12:28:15.733Z,4.44
2024-01-11T12:30:43.699Z,4.53
2024-01-11T12:33:11.329Z,4.19
2024-01-11T12:35:38.715Z,4.30
2024-01-11T12:38:07.218Z,4.58
2024-01-11T12:40:41.429Z,4.69
2024-01-11T12:43:09.188Z,4.87
2024-01-11T12:45:36.715Z,4.90
2024-01-11T12:48:05.026Z,5.01
2024-01-11T12:50:34.050Z,5.18
2024-01-11T12:53:10.953Z,5.44
2024-01-11T12:55:47.896Z,5.48
2024-01-11T12:58:24.196Z,5.10
2024-01-11T13:00:51.339Z,5.14
2024-01-11T13:03:17.993Z,5.36
2024-01-11T13:05:45.309Z,5.42
2024-01-11T13:08:12.228Z,5.14
2024-01-11T13:10:39.123Z,5.24
2024-01-11T13:13:10.089Z,5.12
2024-01-11T13:15:40.974Z,5.01
2024-01-11T13:18:07.935Z,5.01
2024-01-11T13:20:34.548Z,5.02
2024-01-11T13:23:17.462Z,4.84
2024-01-11T13:25:45.235Z,4.66
2024-01-11T13:28:14.902Z,4.63
2024-01-11T13:30:43.277Z,4.47
2024-01-11T13:33:14.423Z,4.55
2024-01-11T13:35:44.798Z,4.65
2024-01-11T13:38:12.305Z,4.66
2024-01-11T13:40:40.869Z,4.76
2024-01-11T13:43:07.472Z,4.89
2024-01-11T13:45:34.459Z,5.13
2024-01-11T13:48:01.343Z,4.71
2024-01-11T13:50:28.494Z,4.91
2024-01-11T13:52:55.980Z,4.81
2024-01-11T13:55:23.391Z,5.12
2024-01-11T13:57:53.796Z,5.09
2024-01-11T14:00:21.427Z,5.21
2024-01-11T14:02:48.828Z,5.22
2024-01-11T14:05:18.566Z,5.22
2024-01-11T14:07:46.514Z,5.13
2024-01-11T14:10:14.504Z,5.16
2024-01-11T14:12:41.850Z,5.47
2024-01-11T14:15:14.445Z,5.29
2024-01-11T14:17:42.453Z,5.24
2024-01-11T14:20:15.089Z,5.37
2024-01-11T14:22:43.274Z,5.18
2024-01-11T14:25:13.426Z,4.98
2024-01-11T14:27:40.191Z,5.13
2024-01-11T14:30:08.222Z,5.18
2024-01-11T14:32:37.432Z,5.13
2024-01-11T14:35:08.718Z,5.23
2024-01-11T14:37:36.708Z,5.33
2024-01-11T14:40:03.788Z,5.40
2024-01-11T14:42:30.464Z,5.40
2024-01-11T14:44:57.423Z,5.46
2024-01-11T14:47:24.553Z,5.50
2024-01-11T14:49:51.301Z,5.54
2024-01-11T14:52:19.936Z,5.42
2024-01-11T14:54:48.447Z,5.64
2024-01-11T14:57:15.756Z,5.46
2024-01-11T14:59:42.857Z,5.23
2024-01-11T15:02:10.473Z,5.34
2024-01-11T15:04:37.450Z,5.38
2024-01-11T15:07:04.414Z,5.18
2024-01-11T15:09:31.069Z,5.22
2024-01-11T15:11:57.724Z,5.11
2024-01-11T15:14:24.312Z,5.31
2024-01-11T15:16:51.362Z,5.15
2024-01-11T15:19:18.672Z,5.22
2024-01-11T15:21:49.325Z,5.18
2024-01-11T15:24:21.369Z,5.36
2024-01-11T15:26:50.221Z,5.10
2024-01-11T15:29:18.431Z,5.34
2024-01-11T15:31:47.482Z,5.36
2024-01-11T15:34:15.941Z,5.10
2024-01-11T15:36:43.978Z,5.03
2024-01-11T15:39:20.991Z,4.97
2024-01-11T15:41:56.037Z,5.16
2024-01-11T15:44:23.635Z,5.11
2024-01-11T15:46:51.286Z,5.22
2024-01-11T15:49:18.198Z,5.26
2024-01-11T15:51:45.171Z,5.19
2024-01-11T15:54:11.922Z,4.98
2024-01-11T15:56:38.678Z,4.98
2024-01-11T15:59:08.412Z,4.99
2024-01-11T16:01:46.567Z,4.89
2024-01-11T16:04:22.936Z,5.09
2024-01-11T16:06:50.132Z,5.07
2024-01-11T16:09:17.198Z,4.89
2024-01-11T16:11:43.811Z,4.81
2024-01-11T16:14:10.384Z,4.84
2024-01-11T16:16:37.085Z,4.74
2024-01-11T16:19:03.748Z,4.71
2024-01-11T16:21:32.297Z,4.87
2024-01-11T16:24:01.626Z,4.73
2024-01-11T16:26:29.605Z,4.63
2024-01-11T16:28:56.212Z,4.60
2024-01-11T16:31:23.809Z,4.64
2024-01-11T16:33:50.438Z,4.67
2024-01-11T16:36:17.316Z,4.73
2024-01-11T16:38:44.578Z,4.76
2024-01-11T16:41:12.197Z,4.96
2024-01-11T16:43:39.224Z,4.71
2024-01-11T16:46:05.861Z,4.61
2024-01-11T16:48:32.613Z,4.65
2024-01-11T16:51:01.059Z,4.66
2024-01-11T16:53:27.624Z,4.59
2024-01-11T16:55:54.433Z,4.51
2024-01-11T16:58:20.990Z,4.51
2024-01-11T17:00:47.761Z,4.60
2024-01-11T17:03:14.672Z,4.67
2024-01-11T17:05:41.523Z,4.83
2024-01-11T17:08:08.371Z,4.65
2024-01-11T17:10:37.942Z,4.67
2024-01-11T17:13:04.695Z,4.81
2024-01-11T17:15:31.303Z,4.88
2024-01-11T17:17:58.451Z,4.78
2024-01-11T17:20:25.656Z,4.69
2024-01-11T17:22:54.587Z,4.76
2024-01-11T17:25:21.500Z,4.80
2024-01-11T17:27:48.079Z,4.59
2024-01-11T17:30:14.792Z,4.47
2024-01-11T17:32:41.492Z,4.48
2024-01-11T17:35:08.687Z,4.54
2024-01-11T17:37:35.809Z,4.41
2024-01-11T17:40:02.496Z,4.45
2024-01-11T17:42:29.099Z,4.30
2024-01-11T17:44:58.424Z,4.51
2024-01-11T17:47:28.632Z,4.54
2024-01-11T17:49:55.240Z,4.65
2024-01-11T17:52:21.922Z,4.60
2024-01-11T17:54:48.811Z,4.71
2024-01-11T17:57:15.529Z,4.74
2024-01-11T17:59:45.301Z,4.55
2024-01-11T18:02:12.051Z,4.68
2024-01-11T18:04:38.859Z,4.70
2024-01-11T18:07:05.803Z,4.82
2024-01-11T18:09:35.275Z,4.79
2024-01-11T18:12:02.189Z,4.77
2024-01-11T18:14:29.120Z,4.66
2024-01-11T18:16:55.750Z,4.65
2024-01-11T18:19:22.517Z,4.57
2024-01-11T18:21:49.252Z,4.58
2024-01-11T18:24:16.111Z,4.41
2024-01-11T18:26:42.828Z,4.52
2024-01-11T18:29:09.532Z,4.56
2024-01-11T18:31:36.150Z,4.41
2024-01-11T18:34:03.406Z,4.49
2024-01-11T18:36:30.348Z,4.49
2024-01-11T18:38:58.636Z,4.44
2024-01-11T18:41:25.447Z,4.55
2024-01-11T18:43:52.145Z,4.62
2024-01-11T18:46:20.307Z,4.49
2024-01-11T18:48:46.975Z,4.49
2024-01-11T18:51:13.650Z,4.37
2024-01-11T18:53:41.532Z,4.45
2024-01-11T18:56:16.558Z,4.46
2024-01-11T18:58:43.606Z,4.48
2024-01-11T19:01:10.555Z,4.44
2024-01-11T19:03:41.593Z,4.34
2024-01-11T19:06:09.014Z,4.29
2024-01-11T19:08:35.895Z,4.35
2024-01-11T19:11:03.091Z,4.26
2024-01-11T19:13:29.721Z,4.26
2024-01-11T19:15:56.333Z,4.37
2024-01-11T19:18:23.204Z,4.35
2024-01-11T19:20:54.042Z,4.21
2024-01-11T19:23:28.193Z,4.22
2024-01-11T19:25:56.443Z,4.18
2024-01-11T19:28:22.973Z,4.23
2024-01-11T19:30:49.581Z,4.31
2024-01-11T19:33:18.096Z,4.21
2024-01-11T19:35:45.428Z,4.15
2024-01-11T19:38:13.542Z,4.14
2024-01-11T19:40:43.071Z,4.15
2024-01-11T19:43:10.587Z,4.13
2024-01-11T19:45:37.487Z,4.12
2024-01-11T19:48:05.264Z,4.19
2024-01-11T19:50:34.699Z,4.20
2024-01-11T19:53:01.869Z,4.15
2024-01-11T19:55:28.492Z,4.13
2024-01-11T19:57:55.189Z,4.19
2024-01-11T20:00:21.826Z,4.10
2024-01-11T20:02:48.590Z,4.06
2024-01-11T20:05:15.449Z,4.11
2024-01-11T20:07:44.666Z,4.16
2024-01-11T20:10:12.418Z,4.18
2024-01-11T20:12:39.211Z,4.13
2024-01-11T20:15:08.266Z,4.12
2024-01-11T20:17:35.029Z,4.11
2024-01-11T20:20:01.948Z,4.00
2024-01-11T20:22:28.534Z,4.00
2024-01-11T20:24:55.592Z,4.10
2024-01-11T20:27:23.470Z,4.05
2024-01-11T20:29:50.288Z,4.04
2024-01-11T20:32:17.175Z,4.01
2024-01-11T20:34:44.078Z,4.03
2024-01-11T20:37:11.516Z,4.07
2024-01-11T20:39:39.218Z,4.10
2024-01-11T20:42:06.362Z,4.04
2024-01-11T20:44:33.013Z,4.06
2024-01-11T20:46:59.756Z,4.08
2024-01-11T20:49:26.408Z,4.04
2024-01-11T20:51:55.430Z,3.97
2024-01-11T20:54:22.073Z,3.92
2024-01-11T20:56:48.802Z,3.88
2024-01-11T20:59:15.532Z,3.89
2024-01-11T21:01:42.792Z,3.99
2024-01-11T21:04:10.334Z,3.91
2024-01-11T21:06:37.067Z,3.87
2024-01-11T21:09:04.491Z,3.85
2024-01-11T21:11:31.169Z,3.90
2024-01-11T21:13:57.775Z,3.81
2024-01-11T21:16:24.376Z,3.77
2024-01-11T21:18:54.496Z,3.72
2024-01-11T21:21:25.008Z,3.63
2024-01-11T21:24:00.546Z,3.68
2024-01-11T21:26:28.278Z,3.60
2024-01-11T21:28:55.606Z,3.49
2024-01-11T21:31:26.600Z,3.43
2024-01-11T21:33:53.776Z,3.41
2024-01-11T21:36:24.682Z,3.35
2024-01-11T21:38:56.323Z,3.37
2024-01-11T21:41:23.680Z,3.34
2024-01-11T21:43:51.760Z,3.40
2024-01-11T21:46:18.815Z,3.45
2024-01-11T21:48:45.661Z,3.38
2024-01-11T21:51:12.846Z,3.34
2024-01-11T21:53:39.906Z,3.45
2024-01-11T21:56:06.770Z,3.46
2024-01-11T21:58:33.891Z,3.46
2024-01-11T22:01:00.513Z,3.41
2024-01-11T22:03:27.881Z,3.38
2024-01-11T22:05:54.806Z,3.35
2024-01-11T22:08:22.346Z,3.33
2024-01-11T22:10:51.487Z,3.35
2024-01-11T22:13:18.093Z,3.34
2024-01-11T22:15:44.883Z,3.27
2024-01-11T22:18:11.724Z,3.26
2024-01-11T22:20:38.849Z,3.25
2024-01-11T22:23:05.653Z,3.25
2024-01-11T22:25:32.352Z,3.26
2024-01-11T22:27:59.033Z,3.19
2024-01-11T22:30:25.629Z,3.14
2024-01-11T22:32:52.355Z,3.17
2024-01-11T22:35:19.390Z,3.11
2024-01-11T22:37:46.018Z,3.07
2024-01-11T22:40:15.380Z,3.09
2024-01-11T22:42:42.478Z,3.06
2024-01-11T22:45:09.595Z,3.03
2024-01-11T22:47:36.584Z,3.10
2024-01-11T22:50:03.291Z,3.07
2024-01-11T22:52:30.528Z,3.09
2024-01-11T22:54:57.190Z,3.09
2024-01-11T22:57:23.800Z,3.15
2024-01-11T22:59:51.209Z,3.15
2024-01-11T23:02:17.865Z,3.14
2024-01-11T23:04:44.548Z,3.17
2024-01-11T23:07:11.304Z,3.19
2024-01-11T23:09:37.872Z,3.16
2024-01-11T23:12:06.997Z,3.06
2024-01-11T23:14:33.990Z,3.05
2024-01-11T23:17:00.660Z,3.05
2024-01-11T23:19:27.997Z,3.01
2024-01-11T23:21:54.778Z,2.96
2024-01-11T23:24:21.426Z,2.98
2024-01-11T23:26:48.119Z,2.96
2024-01-11T23:29:15.577Z,2.93
2024-01-11T23:31:44.185Z,2.89
2024-01-11T23:34:11.477Z,2.90
2024-01-11T23:36:38.064Z,2.89
2024-01-11T23:39:04.616Z,2.83
2024-01-11T23:41:31.162Z,2.88
2024-01-11T23:43:58.020Z,2.82
2024-01-11T23:46:24.624Z,2.83
2024-01-11T23:48:51.285Z,2.79
2024-01-11T23:51:18.221Z,2.83
2024-01-11T23:53:44.839Z,2.83
2024-01-11T23:56:11.441Z,2.78
2024-01-11T23:58:38.125Z,2.75
